sensor_id;sensor_type;location;lat;lon;timestamp;P1;durP1;ratioP1;P2;durP2;ratioP2
21591;SDS011;10958;50.892;3.992;2023-03-23T00:01:48;5.43;;;3.88;;
21591;SDS011;10958;50.892;3.992;2023-03-23T00:04:17;4.72;;;3.50;;
21591;SDS011;10958;50.892;3.992;2023-03-23T00:06:46;4.72;;;3.70;;
21591;SDS011;10958;50.892;3.992;2023-03-23T00:09:14;4.97;;;3.40;;
21591;SDS011;10958;50.892;3.992;2023-03-23T00:11:41;6.57;;;3.78;;
21591;SDS011;10958;50.892;3.992;2023-03-23T00:14:08;5.20;;;3.60;;
21591;SDS011;10958;50.892;3.992;2023-03-23T00:16:38;8.43;;;3.80;;
21591;SDS011;10958;50.892;3.992;2023-03-23T00:19:15;6.07;;;4.28;;
21591;SDS011;10958;50.892;3.992;2023-03-23T00:21:42;5.15;;;3.65;;
21591;SDS011;10958;50.892;3.992;2023-03-23T00:24:12;5.65;;;3.58;;
21591;SDS011;10958;50.892;3.992;2023-03-23T00:26:43;5.28;;;3.42;;
21591;SDS011;10958;50.892;3.992;2023-03-23T00:29:18;6.32;;;3.95;;
21591;SDS011;10958;50.892;3.992;2023-03-23T00:31:46;7.05;;;3.72;;
21591;SDS011;10958;50.892;3.992;2023-03-23T00:34:13;5.53;;;3.72;;
21591;SDS011;10958;50.892;3.992;2023-03-23T00:36:49;4.82;;;3.33;;
21591;SDS011;10958;50.892;3.992;2023-03-23T00:39:16;5.80;;;3.47;;
21591;SDS011;10958;50.892;3.992;2023-03-23T00:41:45;4.30;;;3.10;;
21591;SDS011;10958;50.892;3.992;2023-03-23T00:44:15;7.15;;;3.17;;
21591;SDS011;10958;50.892;3.992;2023-03-23T00:46:51;5.05;;;3.00;;
21591;SDS011;10958;50.892;3.992;2023-03-23T00:49:20;6.57;;;3.38;;
21591;SDS011;10958;50.892;3.992;2023-03-23T00:51:50;3.63;;;2.75;;
21591;SDS011;10958;50.892;3.992;2023-03-23T00:54:20;4.53;;;2.78;;
21591;SDS011;10958;50.892;3.992;2023-03-23T00:56:47;5.03;;;3.00;;
21591;SDS011;10958;50.892;3.992;2023-03-23T00:59:13;5.22;;;2.78;;
21591;SDS011;10958;50.892;3.992;2023-03-23T01:01:39;4.82;;;2.83;;
21591;SDS011;10958;50.892;3.992;2023-03-23T01:04:05;3.17;;;2.35;;
21591;SDS011;10958;50.892;3.992;2023-03-23T01:06:33;3.80;;;2.40;;
21591;SDS011;10958;50.892;3.992;2023-03-23T01:09:04;5.40;;;2.70;;
21591;SDS011;10958;50.892;3.992;2023-03-23T01:11:34;4.10;;;2.80;;
21591;SDS011;10958;50.892;3.992;2023-03-23T01:13:59;4.90;;;2.80;;
21591;SDS011;10958;50.892;3.992;2023-03-23T01:16:26;4.75;;;2.92;;
21591;SDS011;10958;50.892;3.992;2023-03-23T01:18:52;5.05;;;2.78;;
21591;SDS011;10958;50.892;3.992;2023-03-23T01:21:18;5.88;;;2.85;;
21591;SDS011;10958;50.892;3.992;2023-03-23T01:23:46;3.20;;;2.42;;
21591;SDS011;10958;50.892;3.992;2023-03-23T01:26:13;3.80;;;2.47;;
21591;SDS011;10958;50.892;3.992;2023-03-23T01:28:46;4.63;;;3.05;;
21591;SDS011;10958;50.892;3.992;2023-03-23T01:31:14;4.35;;;2.53;;
21591;SDS011;10958;50.892;3.992;2023-03-23T01:33:42;4.00;;;2.47;;
21591;SDS011;10958;50.892;3.992;2023-03-23T01:36:16;2.92;;;2.40;;
21591;SDS011;10958;50.892;3.992;2023-03-23T01:38:53;4.25;;;2.45;;
21591;SDS011;10958;50.892;3.992;2023-03-23T01:41:23;3.30;;;2.53;;
21591;SDS011;10958;50.892;3.992;2023-03-23T01:46:29;4.43;;;2.10;;
21591;SDS011;10958;50.892;3.992;2023-03-23T01:48:58;3.07;;;2.10;;
21591;SDS011;10958;50.892;3.992;2023-03-23T01:51:36;5.30;;;2.47;;
21591;SDS011;10958;50.892;3.992;2023-03-23T01:54:06;3.22;;;2.00;;
21591;SDS011;10958;50.892;3.992;2023-03-23T01:56:38;4.35;;;1.98;;
21591;SDS011;10958;50.892;3.992;2023-03-23T01:59:11;4.97;;;1.80;;
21591;SDS011;10958;50.892;3.992;2023-03-23T02:01:38;4.32;;;1.90;;
21591;SDS011;10958;50.892;3.992;2023-03-23T02:04:09;2.50;;;1.80;;
21591;SDS011;10958;50.892;3.992;2023-03-23T02:06:40;5.80;;;2.00;;
21591;SDS011;10958;50.892;3.992;2023-03-23T02:09:06;4.93;;;1.98;;
21591;SDS011;10958;50.892;3.992;2023-03-23T02:11:32;6.28;;;1.80;;
21591;SDS011;10958;50.892;3.992;2023-03-23T02:14:00;6.03;;;1.80;;
21591;SDS011;10958;50.892;3.992;2023-03-23T02:19:23;2.92;;;1.40;;
21591;SDS011;10958;50.892;3.992;2023-03-23T02:22:28;2.75;;;1.50;;
21591;SDS011;10958;50.892;3.992;2023-03-23T02:35:52;5.63;;;1.40;;
21591;SDS011;10958;50.892;3.992;2023-03-23T02:38:37;4.15;;;1.65;;
21591;SDS011;10958;50.892;3.992;2023-03-23T02:41:10;5.20;;;1.52;;
21591;SDS011;10958;50.892;3.992;2023-03-23T02:43:40;2.78;;;1.50;;
21591;SDS011;10958;50.892;3.992;2023-03-23T02:46:09;3.17;;;1.48;;
21591;SDS011;10958;50.892;3.992;2023-03-23T02:48:36;2.70;;;1.10;;
21591;SDS011;10958;50.892;3.992;2023-03-23T02:51:06;3.40;;;1.23;;
21591;SDS011;10958;50.892;3.992;2023-03-23T02:53:36;3.92;;;1.20;;
21591;SDS011;10958;50.892;3.992;2023-03-23T02:56:05;6.80;;;1.67;;
21591;SDS011;10958;50.892;3.992;2023-03-23T02:58:32;6.22;;;1.65;;
21591;SDS011;10958;50.892;3.992;2023-03-23T03:00:58;4.50;;;1.15;;
21591;SDS011;10958;50.892;3.992;2023-03-23T03:03:26;3.63;;;1.58;;
21591;SDS011;10958;50.892;3.992;2023-03-23T03:09:20;4.85;;;1.55;;
21591;SDS011;10958;50.892;3.992;2023-03-23T03:11:42;3.30;;;1.30;;
21591;SDS011;10958;50.892;3.992;2023-03-23T03:14:13;2.80;;;1.20;;
21591;SDS011;10958;50.892;3.992;2023-03-23T03:17:01;3.97;;;1.30;;
21591;SDS011;10958;50.892;3.992;2023-03-23T03:19:35;3.20;;;1.38;;
21591;SDS011;10958;50.892;3.992;2023-03-23T03:22:05;3.17;;;1.30;;
21591;SDS011;10958;50.892;3.992;2023-03-23T03:24:32;3.47;;;1.30;;
21591;SDS011;10958;50.892;3.992;2023-03-23T03:27:00;3.97;;;1.20;;
21591;SDS011;10958;50.892;3.992;2023-03-23T03:29:35;4.53;;;1.20;;
21591;SDS011;10958;50.892;3.992;2023-03-23T03:32:09;2.97;;;1.10;;
21591;SDS011;10958;50.892;3.992;2023-03-23T03:34:42;3.75;;;1.58;;
21591;SDS011;10958;50.892;3.992;2023-03-23T03:37:07;3.15;;;1.27;;
21591;SDS011;10958;50.892;3.992;2023-03-23T03:39:36;5.80;;;1.58;;
21591;SDS011;10958;50.892;3.992;2023-03-23T03:42:06;5.30;;;1.50;;
21591;SDS011;10958;50.892;3.992;2023-03-23T03:44:32;4.13;;;1.00;;
21591;SDS011;10958;50.892;3.992;2023-03-23T03:46:58;2.95;;;1.33;;
21591;SDS011;10958;50.892;3.992;2023-03-23T03:49:24;5.70;;;1.58;;
21591;SDS011;10958;50.892;3.992;2023-03-23T03:51:52;3.88;;;1.27;;
21591;SDS011;10958;50.892;3.992;2023-03-23T03:54:18;4.90;;;1.40;;
21591;SDS011;10958;50.892;3.992;2023-03-23T03:56:46;3.67;;;1.50;;
21591;SDS011;10958;50.892;3.992;2023-03-23T03:59:11;7.93;;;1.45;;
21591;SDS011;10958;50.892;3.992;2023-03-23T04:01:37;5.97;;;1.30;;
21591;SDS011;10958;50.892;3.992;2023-03-23T04:04:04;9.85;;;1.73;;
21591;SDS011;10958;50.892;3.992;2023-03-23T04:06:32;6.25;;;1.50;;
21591;SDS011;10958;50.892;3.992;2023-03-23T04:09:02;8.00;;;1.40;;
21591;SDS011;10958;50.892;3.992;2023-03-23T04:11:30;5.00;;;1.92;;
21591;SDS011;10958;50.892;3.992;2023-03-23T04:13:57;4.80;;;1.35;;
21591;SDS011;10958;50.892;3.992;2023-03-23T04:16:23;5.35;;;1.30;;
21591;SDS011;10958;50.892;3.992;2023-03-23T04:18:48;7.55;;;2.08;;
21591;SDS011;10958;50.892;3.992;2023-03-23T04:21:15;4.55;;;1.30;;
21591;SDS011;10958;50.892;3.992;2023-03-23T04:23:41;5.55;;;1.40;;
21591;SDS011;10958;50.892;3.992;2023-03-23T04:26:06;6.53;;;1.45;;
21591;SDS011;10958;50.892;3.992;2023-03-23T04:28:32;6.38;;;1.80;;
21591;SDS011;10958;50.892;3.992;2023-03-23T04:30:59;6.72;;;1.55;;
21591;SDS011;10958;50.892;3.992;2023-03-23T04:33:26;6.00;;;1.35;;
21591;SDS011;10958;50.892;3.992;2023-03-23T04:35:56;5.85;;;2.00;;
21591;SDS011;10958;50.892;3.992;2023-03-23T04:38:26;8.82;;;1.80;;
21591;SDS011;10958;50.892;3.992;2023-03-23T04:40:53;6.28;;;1.52;;
21591;SDS011;10958;50.892;3.992;2023-03-23T04:43:20;8.75;;;1.80;;
21591;SDS011;10958;50.892;3.992;2023-03-23T04:45:57;5.03;;;1.42;;
21591;SDS011;10958;50.892;3.992;2023-03-23T04:48:25;4.20;;;1.27;;
21591;SDS011;10958;50.892;3.992;2023-03-23T04:50:58;9.65;;;1.85;;
21591;SDS011;10958;50.892;3.992;2023-03-23T04:53:27;6.07;;;1.48;;
21591;SDS011;10958;50.892;3.992;2023-03-23T04:55:53;5.32;;;1.45;;
21591;SDS011;10958;50.892;3.992;2023-03-23T04:58:19;7.00;;;1.55;;
21591;SDS011;10958;50.892;3.992;2023-03-23T05:00:45;9.73;;;1.45;;
21591;SDS011;10958;50.892;3.992;2023-03-23T05:03:15;6.10;;;1.40;;
21591;SDS011;10958;50.892;3.992;2023-03-23T05:05:44;5.60;;;1.90;;
21591;SDS011;10958;50.892;3.992;2023-03-23T05:08:17;5.15;;;1.52;;
21591;SDS011;10958;50.892;3.992;2023-03-23T05:10:53;5.38;;;1.27;;
21591;SDS011;10958;50.892;3.992;2023-03-23T05:13:21;2.88;;;1.15;;
21591;SDS011;10958;50.892;3.992;2023-03-23T05:15:47;4.20;;;1.60;;
21591;SDS011;10958;50.892;3.992;2023-03-23T05:18:16;2.85;;;1.30;;
21591;SDS011;10958;50.892;3.992;2023-03-23T05:20:42;3.95;;;1.50;;
21591;SDS011;10958;50.892;3.992;2023-03-23T05:23:08;3.97;;;1.60;;
21591;SDS011;10958;50.892;3.992;2023-03-23T05:25:35;6.80;;;2.03;;
21591;SDS011;10958;50.892;3.992;2023-03-23T05:28:05;5.63;;;1.45;;
21591;SDS011;10958;50.892;3.992;2023-03-23T05:30:35;5.88;;;1.63;;
21591;SDS011;10958;50.892;3.992;2023-03-23T05:33:02;6.90;;;1.48;;
21591;SDS011;10958;50.892;3.992;2023-03-23T05:35:32;8.02;;;1.60;;
21591;SDS011;10958;50.892;3.992;2023-03-23T05:37:58;5.93;;;1.50;;
21591;SDS011;10958;50.892;3.992;2023-03-23T05:40:23;4.22;;;1.73;;
21591;SDS011;10958;50.892;3.992;2023-03-23T05:42:50;6.72;;;1.42;;
21591;SDS011;10958;50.892;3.992;2023-03-23T05:45:17;6.22;;;1.17;;
21591;SDS011;10958;50.892;3.992;2023-03-23T05:47:43;4.95;;;1.33;;
21591;SDS011;10958;50.892;3.992;2023-03-23T05:50:09;6.65;;;1.73;;
21591;SDS011;10958;50.892;3.992;2023-03-23T05:52:36;4.15;;;1.27;;
21591;SDS011;10958;50.892;3.992;2023-03-23T05:55:02;5.15;;;1.20;;
21591;SDS011;10958;50.892;3.992;2023-03-23T05:57:30;6.63;;;1.50;;
21591;SDS011;10958;50.892;3.992;2023-03-23T05:59:56;3.88;;;1.70;;
21591;SDS011;10958;50.892;3.992;2023-03-23T06:02:23;7.10;;;1.30;;
21591;SDS011;10958;50.892;3.992;2023-03-23T06:04:50;5.43;;;1.60;;
21591;SDS011;10958;50.892;3.992;2023-03-23T06:07:22;6.57;;;1.50;;
21591;SDS011;10958;50.892;3.992;2023-03-23T06:09:51;1.70;;;0.68;;
21591;SDS011;10958;50.892;3.992;2023-03-23T06:12:18;2.85;;;0.80;;
21591;SDS011;10958;50.892;3.992;2023-03-23T06:14:45;1.63;;;0.40;;
21591;SDS011;10958;50.892;3.992;2023-03-23T06:17:15;4.00;;;0.50;;
21591;SDS011;10958;50.892;3.992;2023-03-23T06:19:42;3.08;;;0.60;;
21591;SDS011;10958;50.892;3.992;2023-03-23T06:22:08;4.38;;;0.80;;
21591;SDS011;10958;50.892;3.992;2023-03-23T06:24:35;3.92;;;1.30;;
21591;SDS011;10958;50.892;3.992;2023-03-23T06:27:01;1.98;;;0.70;;
21591;SDS011;10958;50.892;3.992;2023-03-23T06:29:27;4.93;;;0.70;;
21591;SDS011;10958;50.892;3.992;2023-03-23T06:31:57;5.53;;;1.40;;
21591;SDS011;10958;50.892;3.992;2023-03-23T06:34:25;3.70;;;0.90;;
21591;SDS011;10958;50.892;3.992;2023-03-23T06:36:51;4.07;;;1.10;;
21591;SDS011;10958;50.892;3.992;2023-03-23T06:39:19;6.50;;;1.25;;
21591;SDS011;10958;50.892;3.992;2023-03-23T06:41:45;4.43;;;0.90;;
21591;SDS011;10958;50.892;3.992;2023-03-23T06:44:13;2.20;;;0.90;;
21591;SDS011;10958;50.892;3.992;2023-03-23T06:46:42;3.17;;;0.70;;
21591;SDS011;10958;50.892;3.992;2023-03-23T06:49:08;3.80;;;0.98;;
21591;SDS011;10958;50.892;3.992;2023-03-23T06:51:35;7.22;;;1.08;;
21591;SDS011;10958;50.892;3.992;2023-03-23T06:54:01;3.35;;;0.90;;
21591;SDS011;10958;50.892;3.992;2023-03-23T06:56:28;3.70;;;0.70;;
21591;SDS011;10958;50.892;3.992;2023-03-23T06:58:54;3.95;;;0.80;;
21591;SDS011;10958;50.892;3.992;2023-03-23T07:01:23;5.88;;;2.40;;
21591;SDS011;10958;50.892;3.992;2023-03-23T07:03:48;2.85;;;0.95;;
21591;SDS011;10958;50.892;3.992;2023-03-23T07:06:14;5.63;;;1.40;;
21591;SDS011;10958;50.892;3.992;2023-03-23T07:08:41;3.17;;;0.60;;
21591;SDS011;10958;50.892;3.992;2023-03-23T07:11:07;5.43;;;1.00;;
21591;SDS011;10958;50.892;3.992;2023-03-23T07:13:33;2.92;;;1.00;;
21591;SDS011;10958;50.892;3.992;2023-03-23T07:16:03;4.28;;;1.05;;
21591;SDS011;10958;50.892;3.992;2023-03-23T07:18:31;4.10;;;1.13;;
21591;SDS011;10958;50.892;3.992;2023-03-23T07:20:57;2.55;;;0.80;;
21591;SDS011;10958;50.892;3.992;2023-03-23T07:23:24;5.53;;;1.40;;
21591;SDS011;10958;50.892;3.992;2023-03-23T07:25:50;2.78;;;1.65;;
21591;SDS011;10958;50.892;3.992;2023-03-23T07:28:16;4.57;;;1.65;;
21591;SDS011;10958;50.892;3.992;2023-03-23T07:30:42;2.67;;;1.33;;
21591;SDS011;10958;50.892;3.992;2023-03-23T07:33:12;5.43;;;1.42;;
21591;SDS011;10958;50.892;3.992;2023-03-23T07:35:38;7.60;;;2.15;;
21591;SDS011;10958;50.892;3.992;2023-03-23T07:38:04;6.15;;;1.73;;
21591;SDS011;10958;50.892;3.992;2023-03-23T07:40:33;5.25;;;1.92;;
21591;SDS011;10958;50.892;3.992;2023-03-23T07:43:00;5.47;;;1.60;;
21591;SDS011;10958;50.892;3.992;2023-03-23T07:45:27;6.43;;;1.15;;
21591;SDS011;10958;50.892;3.992;2023-03-23T07:47:53;5.15;;;1.27;;
21591;SDS011;10958;50.892;3.992;2023-03-23T07:50:20;3.60;;;1.40;;
21591;SDS011;10958;50.892;3.992;2023-03-23T07:52:49;4.43;;;1.58;;
21591;SDS011;10958;50.892;3.992;2023-03-23T07:55:16;3.78;;;1.52;;
21591;SDS011;10958;50.892;3.992;2023-03-23T07:57:44;2.30;;;0.90;;
21591;SDS011;10958;50.892;3.992;2023-03-23T08:00:12;5.75;;;1.92;;
21591;SDS011;10958;50.892;3.992;2023-03-23T08:02:43;4.38;;;1.90;;
21591;SDS011;10958;50.892;3.992;2023-03-23T08:05:10;7.65;;;2.40;;
21591;SDS011;10958;50.892;3.992;2023-03-23T08:07:38;8.05;;;3.20;;
21591;SDS011;10958;50.892;3.992;2023-03-23T08:10:05;8.20;;;4.07;;
21591;SDS011;10958;50.892;3.992;2023-03-23T08:12:35;5.57;;;2.55;;
21591;SDS011;10958;50.892;3.992;2023-03-23T08:15:02;6.35;;;2.00;;
21591;SDS011;10958;50.892;3.992;2023-03-23T08:17:29;4.97;;;2.40;;
21591;SDS011;10958;50.892;3.992;2023-03-23T08:19:54;5.53;;;2.47;;
21591;SDS011;10958;50.892;3.992;2023-03-23T08:22:23;5.50;;;2.50;;
21591;SDS011;10958;50.892;3.992;2023-03-23T08:24:49;6.70;;;1.75;;
21591;SDS011;10958;50.892;3.992;2023-03-23T08:27:15;9.73;;;3.40;;
21591;SDS011;10958;50.892;3.992;2023-03-23T08:29:43;8.32;;;2.90;;
21591;SDS011;10958;50.892;3.992;2023-03-23T08:32:10;5.00;;;1.77;;
21591;SDS011;10958;50.892;3.992;2023-03-23T08:34:37;4.05;;;2.30;;
21591;SDS011;10958;50.892;3.992;2023-03-23T08:37:03;6.13;;;1.50;;
21591;SDS011;10958;50.892;3.992;2023-03-23T08:39:29;5.05;;;1.80;;
21591;SDS011;10958;50.892;3.992;2023-03-23T08:41:58;4.40;;;1.50;;
21591;SDS011;10958;50.892;3.992;2023-03-23T08:44:27;3.60;;;1.20;;
21591;SDS011;10958;50.892;3.992;2023-03-23T08:46:57;5.90;;;1.40;;
21591;SDS011;10958;50.892;3.992;2023-03-23T08:49:23;7.13;;;1.80;;
21591;SDS011;10958;50.892;3.992;2023-03-23T08:51:50;4.28;;;1.52;;
21591;SDS011;10958;50.892;3.992;2023-03-23T08:54:18;3.38;;;1.20;;
21591;SDS011;10958;50.892;3.992;2023-03-23T08:56:44;5.50;;;1.40;;
21591;SDS011;10958;50.892;3.992;2023-03-23T08:59:09;2.70;;;1.00;;
21591;SDS011;10958;50.892;3.992;2023-03-23T09:01:35;4.00;;;1.10;;
21591;SDS011;10958;50.892;3.992;2023-03-23T09:04:01;4.03;;;1.45;;
21591;SDS011;10958;50.892;3.992;2023-03-23T09:06:27;4.78;;;1.45;;
21591;SDS011;10958;50.892;3.992;2023-03-23T09:08:53;4.20;;;1.17;;
21591;SDS011;10958;50.892;3.992;2023-03-23T09:11:23;2.30;;;1.10;;
21591;SDS011;10958;50.892;3.992;2023-03-23T09:13:48;3.40;;;1.38;;
21591;SDS011;10958;50.892;3.992;2023-03-23T09:16:15;4.60;;;1.75;;
21591;SDS011;10958;50.892;3.992;2023-03-23T09:18:41;4.28;;;1.67;;
21591;SDS011;10958;50.892;3.992;2023-03-23T09:21:07;4.95;;;1.40;;
21591;SDS011;10958;50.892;3.992;2023-03-23T09:23:34;2.58;;;1.30;;
21591;SDS011;10958;50.892;3.992;2023-03-23T09:26:00;3.88;;;1.20;;
21591;SDS011;10958;50.892;3.992;2023-03-23T09:28:28;1.80;;;1.15;;
21591;SDS011;10958;50.892;3.992;2023-03-23T09:30:56;3.33;;;1.20;;
21591;SDS011;10958;50.892;3.992;2023-03-23T09:33:22;3.88;;;2.08;;
21591;SDS011;10958;50.892;3.992;2023-03-23T09:35:49;5.25;;;2.40;;
21591;SDS011;10958;50.892;3.992;2023-03-23T09:38:15;3.55;;;1.25;;
21591;SDS011;10958;50.892;3.992;2023-03-23T09:40:48;2.92;;;1.08;;
21591;SDS011;10958;50.892;3.992;2023-03-23T09:46:06;3.70;;;1.15;;
21591;SDS011;10958;50.892;3.992;2023-03-23T09:48:59;3.03;;;1.00;;
21591;SDS011;10958;50.892;3.992;2023-03-23T09:51:42;2.78;;;1.30;;
21591;SDS011;10958;50.892;3.992;2023-03-23T09:56:55;4.38;;;1.90;;
21591;SDS011;10958;50.892;3.992;2023-03-23T10:01:58;4.35;;;1.27;;
21591;SDS011;10958;50.892;3.992;2023-03-23T10:04:47;3.28;;;1.30;;
21591;SDS011;10958;50.892;3.992;2023-03-23T10:07:16;7.63;;;2.10;;
21591;SDS011;10958;50.892;3.992;2023-03-23T10:09:45;4.53;;;1.45;;
21591;SDS011;10958;50.892;3.992;2023-03-23T10:12:29;5.90;;;2.30;;
21591;SDS011;10958;50.892;3.992;2023-03-23T10:15:18;3.70;;;1.85;;
21591;SDS011;10958;50.892;3.992;2023-03-23T10:21:17;6.63;;;1.40;;
21591;SDS011;10958;50.892;3.992;2023-03-23T10:26:36;7.53;;;1.60;;
21591;SDS011;10958;50.892;3.992;2023-03-23T10:29:23;7.68;;;2.50;;
21591;SDS011;10958;50.892;3.992;2023-03-23T10:31:59;5.75;;;1.55;;
21591;SDS011;10958;50.892;3.992;2023-03-23T10:34:49;5.93;;;2.17;;
21591;SDS011;10958;50.892;3.992;2023-03-23T10:37:21;5.95;;;2.05;;
21591;SDS011;10958;50.892;3.992;2023-03-23T10:39:59;5.75;;;1.70;;
21591;SDS011;10958;50.892;3.992;2023-03-23T10:42:29;6.60;;;1.80;;
21591;SDS011;10958;50.892;3.992;2023-03-23T10:45:11;5.93;;;1.55;;
21591;SDS011;10958;50.892;3.992;2023-03-23T10:47:44;8.23;;;2.13;;
21591;SDS011;10958;50.892;3.992;2023-03-23T10:50:18;6.60;;;1.98;;
21591;SDS011;10958;50.892;3.992;2023-03-23T10:52:48;10.27;;;2.53;;
21591;SDS011;10958;50.892;3.992;2023-03-23T10:55:18;6.50;;;2.00;;
21591;SDS011;10958;50.892;3.992;2023-03-23T10:57:58;7.13;;;2.25;;
21591;SDS011;10958;50.892;3.992;2023-03-23T11:06:10;4.93;;;1.83;;
21591;SDS011;10958;50.892;3.992;2023-03-23T11:08:55;5.03;;;1.83;;
21591;SDS011;10958;50.892;3.992;2023-03-23T11:13:57;9.68;;;2.08;;
21591;SDS011;10958;50.892;3.992;2023-03-23T11:18:51;5.90;;;2.08;;
21591;SDS011;10958;50.892;3.992;2023-03-23T11:21:17;10.00;;;2.58;;
21591;SDS011;10958;50.892;3.992;2023-03-23T11:23:48;9.35;;;2.50;;
21591;SDS011;10958;50.892;3.992;2023-03-23T11:26:25;12.07;;;2.35;;
21591;SDS011;10958;50.892;3.992;2023-03-23T11:31:45;10.68;;;2.67;;
21591;SDS011;10958;50.892;3.992;2023-03-23T11:34:29;13.35;;;2.47;;
21591;SDS011;10958;50.892;3.992;2023-03-23T11:37:11;12.23;;;2.05;;
21591;SDS011;10958;50.892;3.992;2023-03-23T11:42:45;5.50;;;1.95;;
21591;SDS011;10958;50.892;3.992;2023-03-23T11:45:16;10.48;;;2.33;;
21591;SDS011;10958;50.892;3.992;2023-03-23T11:50:57;9.15;;;2.03;;
21591;SDS011;10958;50.892;3.992;2023-03-23T11:56:13;9.00;;;2.38;;
21591;SDS011;10958;50.892;3.992;2023-03-23T11:58:46;8.93;;;2.35;;
21591;SDS011;10958;50.892;3.992;2023-03-23T12:01:16;10.98;;;3.20;;
21591;SDS011;10958;50.892;3.992;2023-03-23T12:07:09;6.57;;;2.65;;
21591;SDS011;10958;50.892;3.992;2023-03-23T12:12:32;8.85;;;2.60;;
21591;SDS011;10958;50.892;3.992;2023-03-23T12:34:54;4.88;;;1.60;;
21591;SDS011;10958;50.892;3.992;2023-03-23T12:37:28;8.07;;;1.88;;
21591;SDS011;10958;50.892;3.992;2023-03-23T12:42:54;3.88;;;1.42;;
21591;SDS011;10958;50.892;3.992;2023-03-23T12:45:26;7.75;;;2.13;;
21591;SDS011;10958;50.892;3.992;2023-03-23T12:50:33;9.80;;;2.08;;
21591;SDS011;10958;50.892;3.992;2023-03-23T12:53:12;10.80;;;1.83;;
21591;SDS011;10958;50.892;3.992;2023-03-23T12:55:46;9.27;;;1.67;;
21591;SDS011;10958;50.892;3.992;2023-03-23T12:58:18;10.23;;;2.23;;
21591;SDS011;10958;50.892;3.992;2023-03-23T13:01:10;12.30;;;2.25;;
21591;SDS011;10958;50.892;3.992;2023-03-23T13:11:47;7.07;;;2.53;;
21591;SDS011;10958;50.892;3.992;2023-03-23T13:16:55;8.07;;;2.30;;
21591;SDS011;10958;50.892;3.992;2023-03-23T13:19:29;5.63;;;1.55;;
21591;SDS011;10958;50.892;3.992;2023-03-23T13:22:02;7.60;;;1.98;;
21591;SDS011;10958;50.892;3.992;2023-03-23T13:24:41;6.38;;;1.67;;
21591;SDS011;10958;50.892;3.992;2023-03-23T13:27:15;5.70;;;1.63;;
21591;SDS011;10958;50.892;3.992;2023-03-23T13:29:45;6.80;;;1.70;;
21591;SDS011;10958;50.892;3.992;2023-03-23T13:32:12;6.15;;;2.30;;
21591;SDS011;10958;50.892;3.992;2023-03-23T13:34:41;7.63;;;1.73;;
21591;SDS011;10958;50.892;3.992;2023-03-23T13:37:26;7.07;;;1.58;;
21591;SDS011;10958;50.892;3.992;2023-03-23T13:39:56;8.10;;;2.05;;
21591;SDS011;10958;50.892;3.992;2023-03-23T13:42:51;9.60;;;1.90;;
21591;SDS011;10958;50.892;3.992;2023-03-23T13:51:21;9.55;;;1.40;;
21591;SDS011;10958;50.892;3.992;2023-03-23T13:54:06;7.30;;;1.67;;
21591;SDS011;10958;50.892;3.992;2023-03-23T13:59:16;6.22;;;1.65;;
21591;SDS011;10958;50.892;3.992;2023-03-23T14:01:53;7.13;;;1.58;;
21591;SDS011;10958;50.892;3.992;2023-03-23T14:04:40;8.02;;;2.67;;
21591;SDS011;10958;50.892;3.992;2023-03-23T14:07:09;7.00;;;2.10;;
21591;SDS011;10958;50.892;3.992;2023-03-23T14:09:38;10.32;;;2.45;;
21591;SDS011;10958;50.892;3.992;2023-03-23T14:12:27;7.40;;;2.15;;
21591;SDS011;10958;50.892;3.992;2023-03-23T14:14:57;7.10;;;2.13;;
21591;SDS011;10958;50.892;3.992;2023-03-23T14:17:30;5.90;;;1.73;;
21591;SDS011;10958;50.892;3.992;2023-03-23T14:19:59;12.15;;;1.90;;
21591;SDS011;10958;50.892;3.992;2023-03-23T14:22:27;7.07;;;1.98;;
21591;SDS011;10958;50.892;3.992;2023-03-23T14:25:18;7.22;;;1.92;;
21591;SDS011;10958;50.892;3.992;2023-03-23T14:27:45;5.88;;;1.70;;
21591;SDS011;10958;50.892;3.992;2023-03-23T14:30:13;8.55;;;1.95;;
21591;SDS011;10958;50.892;3.992;2023-03-23T14:32:41;7.18;;;1.60;;
21591;SDS011;10958;50.892;3.992;2023-03-23T14:35:11;7.80;;;2.10;;
21591;SDS011;10958;50.892;3.992;2023-03-23T14:37:43;9.88;;;2.00;;
21591;SDS011;10958;50.892;3.992;2023-03-23T14:40:12;11.05;;;2.08;;
21591;SDS011;10958;50.892;3.992;2023-03-23T14:42:40;9.88;;;2.15;;
21591;SDS011;10958;50.892;3.992;2023-03-23T14:45:09;7.28;;;1.90;;
21591;SDS011;10958;50.892;3.992;2023-03-23T14:47:40;9.40;;;2.05;;
21591;SDS011;10958;50.892;3.992;2023-03-23T14:50:24;11.60;;;2.70;;
21591;SDS011;10958;50.892;3.992;2023-03-23T14:55:51;7.35;;;1.98;;
21591;SDS011;10958;50.892;3.992;2023-03-23T14:58:22;7.77;;;2.40;;
21591;SDS011;10958;50.892;3.992;2023-03-23T15:00:54;9.00;;;1.92;;
21591;SDS011;10958;50.892;3.992;2023-03-23T15:03:27;12.20;;;2.42;;
21591;SDS011;10958;50.892;3.992;2023-03-23T15:05:58;6.25;;;1.60;;
21591;SDS011;10958;50.892;3.992;2023-03-23T15:08:28;10.85;;;2.25;;
21591;SDS011;10958;50.892;3.992;2023-03-23T15:11:06;9.65;;;2.03;;
21591;SDS011;10958;50.892;3.992;2023-03-23T15:13:36;10.75;;;2.30;;
21591;SDS011;10958;50.892;3.992;2023-03-23T15:16:12;10.15;;;2.55;;
21591;SDS011;10958;50.892;3.992;2023-03-23T15:18:40;9.48;;;2.40;;
21591;SDS011;10958;50.892;3.992;2023-03-23T15:21:19;11.38;;;2.85;;
21591;SDS011;10958;50.892;3.992;2023-03-23T15:23:48;11.90;;;2.38;;
21591;SDS011;10958;50.892;3.992;2023-03-23T15:26:23;8.93;;;2.60;;
21591;SDS011;10958;50.892;3.992;2023-03-23T15:29:31;12.65;;;3.55;;
21591;SDS011;10958;50.892;3.992;2023-03-23T15:31:53;11.23;;;3.03;;
21591;SDS011;10958;50.892;3.992;2023-03-23T15:34:24;11.52;;;2.88;;
21591;SDS011;10958;50.892;3.992;2023-03-23T15:36:52;16.52;;;4.00;;
21591;SDS011;10958;50.892;3.992;2023-03-23T15:39:21;15.07;;;3.00;;
21591;SDS011;10958;50.892;3.992;2023-03-23T15:41:48;12.43;;;3.25;;
21591;SDS011;10958;50.892;3.992;2023-03-23T15:44:34;12.13;;;2.53;;
21591;SDS011;10958;50.892;3.992;2023-03-23T15:47:10;12.25;;;2.95;;
21591;SDS011;10958;50.892;3.992;2023-03-23T15:49:42;13.50;;;3.05;;
21591;SDS011;10958;50.892;3.992;2023-03-23T15:52:10;11.65;;;2.70;;
21591;SDS011;10958;50.892;3.992;2023-03-23T15:54:45;10.40;;;3.30;;
21591;SDS011;10958;50.892;3.992;2023-03-23T15:57:12;8.75;;;2.33;;
21591;SDS011;10958;50.892;3.992;2023-03-23T15:59:37;11.32;;;2.60;;
21591;SDS011;10958;50.892;3.992;2023-03-23T16:02:03;10.82;;;2.63;;
21591;SDS011;10958;50.892;3.992;2023-03-23T16:04:33;11.43;;;2.90;;
21591;SDS011;10958;50.892;3.992;2023-03-23T16:06:59;12.02;;;2.95;;
21591;SDS011;10958;50.892;3.992;2023-03-23T16:09:25;8.00;;;2.50;;
21591;SDS011;10958;50.892;3.992;2023-03-23T16:11:50;11.35;;;2.85;;
21591;SDS011;10958;50.892;3.992;2023-03-23T16:14:16;13.10;;;2.28;;
21591;SDS011;10958;50.892;3.992;2023-03-23T16:16:45;9.20;;;2.05;;
21591;SDS011;10958;50.892;3.992;2023-03-23T16:19:14;9.98;;;1.95;;
21591;SDS011;10958;50.892;3.992;2023-03-23T16:21:41;7.28;;;2.03;;
21591;SDS011;10958;50.892;3.992;2023-03-23T16:24:09;10.07;;;2.20;;
21591;SDS011;10958;50.892;3.992;2023-03-23T16:26:36;11.82;;;1.92;;
21591;SDS011;10958;50.892;3.992;2023-03-23T16:29:14;9.35;;;2.13;;
21591;SDS011;10958;50.892;3.992;2023-03-23T16:31:40;10.55;;;3.10;;
21591;SDS011;10958;50.892;3.992;2023-03-23T16:34:06;38.60;;;15.30;;
21591;SDS011;10958;50.892;3.992;2023-03-23T16:36:33;52.65;;;20.95;;
21591;SDS011;10958;50.892;3.992;2023-03-23T16:38:59;8.70;;;2.60;;
21591;SDS011;10958;50.892;3.992;2023-03-23T16:41:25;10.73;;;2.40;;
21591;SDS011;10958;50.892;3.992;2023-03-23T16:43:51;8.25;;;2.75;;
21591;SDS011;10958;50.892;3.992;2023-03-23T16:46:17;8.30;;;2.08;;
21591;SDS011;10958;50.892;3.992;2023-03-23T16:48:43;10.80;;;2.58;;
21591;SDS011;10958;50.892;3.992;2023-03-23T16:51:09;9.48;;;2.13;;
21591;SDS011;10958;50.892;3.992;2023-03-23T16:53:35;7.20;;;2.25;;